Time;durP1;ratioP1;P1;durP2;ratioP2;P2;SDS_P1;SDS_P2;PMS_P1;PMS_P2;Temp;Humidity;BMP_temperature;BMP_pressure;BME280_temperature;BME280_humidity;BME280_pressure;Samples;Min_cycle;Max_cycle;Signal;HPM_P1;HPM_P2
2021/12/28 00:00:54;;;;;;;6.43;3.63;;;7.40;67.50;;;;;;5027381;28;20094;-79
2021/12/28 00:03:19;;;;;;;8.10;4.03;;;7.30;67.50;;;;;;5025505;28;20069;-79
2021/12/28 00:05:45;;;;;;;8.50;4.40;;;7.30;67.70;;;;;;5019501;28;20034;-79
2021/12/28 00:08:12;;;;;;;7.53;3.77;;;7.20;67.60;;;;;;5024001;28;20052;-79
2021/12/28 00:10:38;;;;;;;4.37;3.07;;;7.20;67.70;;;;;;5024070;28;20033;-79
2021/12/28 00:13:04;;;;;;;6.10;3.60;;;7.20;67.80;;;;;;5016718;28;20116;-79
2021/12/28 00:15:34;;;;;;;5.07;2.80;;;7.20;68.30;;;;;;5019520;28;20108;-79
2021/12/28 00:18:04;;;;;;;6.93;4.00;;;7.20;67.70;;;;;;5032834;28;20553;-79
2021/12/28 00:20:33;;;;;;;7.90;5.50;;;7.20;67.80;;;;;;5026756;28;20037;-79
2021/12/28 00:22:59;;;;;;;10.80;6.83;;;7.10;67.80;;;;;;5023553;28;20040;-79
2021/12/28 00:25:25;;;;;;;11.10;6.33;;;7.10;67.90;;;;;;5029680;28;20038;-79
2021/12/28 00:27:52;;;;;;;6.47;4.03;;;7.00;67.90;;;;;;5032139;28;20070;-79
2021/12/28 00:30:18;;;;;;;12.20;6.53;;;7.00;68.10;;;;;;5022859;28;22388;-79
2021/12/28 00:32:46;;;;;;;10.07;6.27;;;6.90;68.50;;;;;;5020914;28;20034;-79
2021/12/28 00:35:12;;;;;;;8.90;6.07;;;6.80;68.00;;;;;;5025507;28;20552;-78
2021/12/28 00:37:38;;;;;;;9.13;6.27;;;6.80;68.20;;;;;;5025092;28;20116;-78
2021/12/28 00:40:04;;;;;;;13.40;5.67;;;6.70;68.10;;;;;;5026958;28;20451;-79
2021/12/28 00:42:30;;;;;;;8.07;4.90;;;6.70;68.20;;;;;;5026331;28;20100;-79
2021/12/28 00:44:56;;;;;;;7.13;4.33;;;6.70;68.10;;;;;;5029692;28;20049;-79
2021/12/28 00:47:21;;;;;;;9.70;4.87;;;6.60;68.10;;;;;;5028894;28;20038;-79
2021/12/28 00:49:47;;;;;;;14.73;6.77;;;6.60;68.10;;;;;;5026153;28;20108;-79
2021/12/28 00:52:13;;;;;;;8.87;6.20;;;6.60;68.10;;;;;;5026737;28;20075;-79
2021/12/28 00:54:39;;;;;;;9.97;6.13;;;6.60;68.10;;;;;;5028788;28;20025;-79
2021/12/28 00:57:04;;;;;;;10.33;6.80;;;6.50;68.00;;;;;;5029827;28;20044;-79
2021/12/28 00:59:30;;;;;;;11.73;7.23;;;6.50;68.50;;;;;;5025695;28;20028;-79
2021/12/28 01:01:56;;;;;;;12.33;6.80;;;6.50;68.10;;;;;;5021532;28;20059;-79
2021/12/28 01:04:24;;;;;;;11.77;6.80;;;6.40;68.10;;;;;;5028335;28;20038;-79
2021/12/28 01:06:50;;;;;;;11.07;7.00;;;6.40;68.10;;;;;;5029109;28;20037;-79
2021/12/28 01:09:15;;;;;;;17.70;8.13;;;6.40;68.20;;;;;;5024427;28;20029;-78
2021/12/28 01:11:42;;;;;;;15.97;8.30;;;6.30;68.20;;;;;;5026431;28;20036;-79
2021/12/28 01:14:08;;;;;;;13.37;5.73;;;6.30;68.30;;;;;;5024656;28;20139;-78
2021/12/28 01:16:33;;;;;;;9.30;5.90;;;6.20;68.30;;;;;;5018628;28;20124;-79
2021/12/28 01:18:59;;;;;;;12.43;5.70;;;6.20;68.50;;;;;;5026618;28;20069;-79
2021/12/28 01:21:25;;;;;;;8.47;4.87;;;6.10;68.40;;;;;;5025280;28;20059;-78
2021/12/28 01:23:51;;;;;;;8.80;5.33;;;6.10;68.40;;;;;;5028572;28;20556;-79
2021/12/28 01:26:17;;;;;;;8.23;5.37;;;6.10;68.40;;;;;;5028836;28;20380;-79
2021/12/28 01:28:42;;;;;;;6.67;4.30;;;6.00;68.50;;;;;;5029195;28;20073;-79
2021/12/28 01:31:08;;;;;;;9.00;5.03;;;6.00;68.60;;;;;;5028053;28;20021;-79
2021/12/28 01:33:34;;;;;;;9.27;4.77;;;6.00;68.60;;;;;;5021515;28;20025;-79
2021/12/28 01:35:59;;;;;;;8.37;4.67;;;5.90;68.60;;;;;;5032085;28;20030;-78
2021/12/28 01:38:25;;;;;;;6.97;3.80;;;5.90;68.70;;;;;;5023054;28;20033;-79
2021/12/28 01:40:53;;;;;;;8.93;3.07;;;5.90;68.70;;;;;;5030325;28;20124;-79
2021/12/28 01:43:21;;;;;;;5.97;2.90;;;5.80;68.90;;;;;;5029326;28;20036;-79
2021/12/28 01:45:55;;;;;;;8.67;3.23;;;5.90;68.80;;;;;;5028995;28;20049;-79
2021/12/28 01:48:24;;;;;;;6.67;4.00;;;5.80;68.80;;;;;;5023017;28;20033;-79
2021/12/28 01:50:53;;;;;;;6.43;3.93;;;5.90;68.90;;;;;;5025556;28;20515;-79
2021/12/28 01:53:19;;;;;;;3.80;2.47;;;5.80;68.70;;;;;;5015676;28;20030;-79
2021/12/28 01:55:49;;;;;;;4.33;2.70;;;5.80;68.60;;;;;;5028641;28;20028;-79
2021/12/28 01:58:15;;;;;;;4.80;2.70;;;5.80;68.50;;;;;;5028966;28;20029;-78
2021/12/28 02:00:43;;;;;;;7.47;2.80;;;5.80;68.60;;;;;;5021876;28;20477;-78
2021/12/28 02:03:13;;;;;;;6.37;3.97;;;5.80;68.70;;;;;;5022641;28;20368;-78
2021/12/28 02:05:39;;;;;;;5.73;3.60;;;5.70;68.50;;;;;;5024721;28;20037;-78
2021/12/28 02:08:07;;;;;;;3.80;2.17;;;5.70;68.70;;;;;;5025051;28;20037;-79
2021/12/28 02:10:34;;;;;;;4.77;2.43;;;5.70;68.60;;;;;;5018092;28;20044;-78
2021/12/28 02:13:00;;;;;;;4.87;2.70;;;5.60;68.90;;;;;;5031955;28;20021;-78
2021/12/28 02:15:26;;;;;;;5.37;2.90;;;5.50;69.00;;;;;;5022639;28;20029;-79
2021/12/28 02:17:51;;;;;;;9.67;3.10;;;5.50;69.00;;;;;;5025714;28;20021;-79
2021/12/28 02:20:20;;;;;;;6.30;3.70;;;5.50;69.10;;;;;;5029972;28;20029;-78
2021/12/28 02:22:46;;;;;;;5.07;3.07;;;5.50;69.20;;;;;;5028879;28;20040;-78
2021/12/28 02:25:14;;;;;;;5.17;3.47;;;5.50;69.10;;;;;;5029183;28;20049;-78
2021/12/28 02:27:40;;;;;;;5.73;2.90;;;5.50;68.90;;;;;;5030363;28;20029;-78
2021/12/28 02:30:11;;;;;;;4.93;2.90;;;5.40;68.70;;;;;;5030911;28;20029;-78
2021/12/28 02:32:38;;;;;;;5.10;2.50;;;5.30;68.60;;;;;;5028644;28;20040;-79
2021/12/28 02:35:07;;;;;;;4.90;2.20;;;5.30;68.90;;;;;;5031531;28;20067;-78
2021/12/28 02:37:32;;;;;;;7.67;2.57;;;5.30;68.70;;;;;;5028741;28;20033;-79
2021/12/28 02:39:58;;;;;;;2.57;1.73;;;5.30;68.90;;;;;;5030202;28;20033;-79
2021/12/28 02:42:24;;;;;;;4.00;1.77;;;5.30;68.80;;;;;;5025528;28;20042;-79
2021/12/28 02:45:07;;;;;;;2.40;1.30;;;5.30;68.80;;;;;;5017952;28;20049;-79
2021/12/28 02:47:36;;;;;;;2.47;1.60;;;5.30;68.80;;;;;;5027150;28;20033;-79
2021/12/28 02:50:06;;;;;;;4.07;1.50;;;5.30;68.80;;;;;;5036993;28;20459;-78
2021/12/28 02:52:39;;;;;;;1.93;1.23;;;5.20;68.60;;;;;;5025579;28;20377;-78
2021/12/28 02:55:09;;;;;;;1.93;1.20;;;5.10;68.80;;;;;;5019904;28;20155;-78
2021/12/28 02:57:35;;;;;;;2.47;1.50;;;5.10;68.90;;;;;;5025719;28;20034;-78
2021/12/28 03:00:03;;;;;;;2.03;1.30;;;5.10;69.00;;;;;;5021658;28;20795;-78
2021/12/28 03:02:29;;;;;;;1.93;1.40;;;5.10;69.10;;;;;;5025983;28;20025;-79
2021/12/28 03:04:55;;;;;;;3.30;1.70;;;5.20;69.10;;;;;;5020347;28;20030;-78
2021/12/28 03:07:22;;;;;;;4.30;2.43;;;5.10;68.70;;;;;;5026360;28;20534;-78
2021/12/28 03:09:48;;;;;;;4.83;2.80;;;5.20;68.90;;;;;;5024800;28;20083;-78
2021/12/28 03:12:14;;;;;;;3.27;2.20;;;5.20;68.70;;;;;;5022807;28;20033;-78
2021/12/28 03:14:40;;;;;;;3.27;2.17;;;5.10;68.50;;;;;;5024656;28;20022;-78
2021/12/28 03:17:06;;;;;;;3.53;1.70;;;5.10;68.50;;;;;;5014698;28;20034;-78
2021/12/28 03:19:32;;;;;;;2.97;1.90;;;5.00;68.60;;;;;;5021615;28;20040;-78
2021/12/28 03:21:58;;;;;;;3.83;1.50;;;5.00;69.30;;;;;;5027369;28;20033;-79
2021/12/28 03:24:26;;;;;;;3.33;1.90;;;5.00;68.70;;;;;;5021616;28;20041;-78
2021/12/28 03:26:52;;;;;;;1.83;1.20;;;4.90;68.60;;;;;;5026631;28;20408;-78
2021/12/28 03:29:19;;;;;;;4.07;1.70;;;4.80;69.10;;;;;;5026918;28;20025;-78
2021/12/28 03:31:44;;;;;;;1.70;1.20;;;4.90;69.10;;;;;;5025314;28;20029;-78
2021/12/28 03:34:10;;;;;;;3.23;1.77;;;4.90;68.90;;;;;;5029484;28;20048;-78
2021/12/28 03:36:36;;;;;;;3.07;1.43;;;4.90;68.80;;;;;;5031088;28;20060;-78
2021/12/28 03:39:03;;;;;;;3.53;2.13;;;4.90;68.90;;;;;;5028327;28;20032;-78
2021/12/28 03:41:31;;;;;;;3.73;1.83;;;4.90;68.70;;;;;;5029271;28;20030;-78
2021/12/28 03:43:57;;;;;;;3.10;1.77;;;4.90;68.70;;;;;;5021235;28;20025;-78
2021/12/28 03:46:25;;;;;;;4.63;2.03;;;4.90;68.70;;;;;;5025491;28;20140;-78
2021/12/28 03:48:52;;;;;;;5.90;1.80;;;4.90;68.80;;;;;;5023783;28;20033;-78
2021/12/28 03:51:17;;;;;;;4.80;2.13;;;4.90;68.80;;;;;;5024801;28;20455;-78
2021/12/28 03:53:48;;;;;;;3.77;2.77;;;4.90;68.60;;;;;;5027751;28;20033;-78
2021/12/28 03:56:14;;;;;;;2.57;1.47;;;4.80;68.50;;;;;;5028460;28;20029;-78
2021/12/28 03:58:42;;;;;;;3.27;2.27;;;4.80;68.60;;;;;;5019416;28;20029;-78
2021/12/28 04:01:10;;;;;;;3.37;1.80;;;4.80;68.60;;;;;;5017848;28;20116;-78
2021/12/28 04:03:36;;;;;;;3.57;1.77;;;4.80;68.60;;;;;;5029132;28;20036;-78
2021/12/28 04:06:07;;;;;;;1.90;1.20;;;4.80;68.80;;;;;;5019354;28;20052;-78
2021/12/28 04:08:35;;;;;;;3.10;1.80;;;4.80;68.70;;;;;;5020533;28;20034;-78
2021/12/28 04:11:13;;;;;;;4.13;2.13;;;4.90;68.70;;;;;;5022809;28;20026;-78
2021/12/28 04:13:40;;;;;;;2.00;1.37;;;4.80;68.50;;;;;;5019172;28;20376;-78
2021/12/28 04:16:06;;;;;;;1.90;1.20;;;4.70;68.60;;;;;;5016942;28;20602;-78
2021/12/28 04:18:32;;;;;;;3.93;2.20;;;4.80;68.60;;;;;;5017707;28;20041;-78
2021/12/28 04:20:58;;;;;;;1.73;1.20;;;4.70;68.60;;;;;;5020976;28;20029;-78
2021/12/28 04:23:23;;;;;;;5.03;2.30;;;4.70;68.80;;;;;;5013909;28;20052;-78
2021/12/28 04:25:49;;;;;;;4.00;2.00;;;4.70;68.80;;;;;;5032000;28;20034;-78
2021/12/28 04:28:15;;;;;;;4.53;2.50;;;4.80;69.10;;;;;;5021076;28;20032;-78
2021/12/28 04:30:41;;;;;;;22.60;10.20;;;4.80;69.30;;;;;;5023844;28;20032;-78
2021/12/28 04:33:07;;;;;;;17.03;7.63;;;4.80;68.90;;;;;;5026766;28;20045;-78
2021/12/28 04:35:32;;;;;;;15.57;7.77;;;4.80;68.80;;;;;;5024968;28;20128;-78
2021/12/28 04:37:58;;;;;;;4.77;2.87;;;4.70;69.40;;;;;;5021201;28;20042;-78
2021/12/28 04:40:24;;;;;;;4.47;2.13;;;4.70;68.80;;;;;;5027276;28;20415;-78
2021/12/28 04:42:50;;;;;;;4.33;2.57;;;4.70;68.90;;;;;;5019360;28;20152;-78
2021/12/28 04:45:17;;;;;;;4.53;2.30;;;4.70;68.80;;;;;;5018506;28;20148;-78
2021/12/28 04:47:43;;;;;;;4.93;3.13;;;4.70;68.90;;;;;;5021148;28;20124;-78
2021/12/28 04:50:10;;;;;;;9.27;4.47;;;4.70;68.70;;;;;;5025618;28;20104;-78
2021/12/28 04:52:38;;;;;;;11.50;5.67;;;4.60;68.80;;;;;;5029351;28;20026;-78
2021/12/28 04:55:10;;;;;;;9.03;4.80;;;4.60;68.80;;;;;;5024095;28;20029;-79
2021/12/28 04:57:36;;;;;;;9.27;5.15;;;4.60;69.00;;;;;;5015797;28;20496;-79
2021/12/28 05:00:07;;;;;;;9.23;5.27;;;4.60;69.00;;;;;;5025236;28;20029;-79
2021/12/28 05:02:33;;;;;;;10.50;6.47;;;4.60;69.10;;;;;;5029510;28;20076;-78
2021/12/28 05:04:59;;;;;;;10.03;5.67;;;4.50;69.20;;;;;;5030331;28;20033;-78
2021/12/28 05:07:26;;;;;;;6.43;4.17;;;4.50;69.40;;;;;;5021571;28;20044;-78
2021/12/28 05:09:57;;;;;;;5.90;3.10;;;4.60;69.30;;;;;;5030281;28;20465;-78
2021/12/28 05:12:26;;;;;;;5.13;2.70;;;4.60;69.10;;;;;;5027550;28;20064;-79
2021/12/28 05:14:52;;;;;;;4.63;2.30;;;4.50;69.00;;;;;;5027237;28;20105;-78
2021/12/28 05:17:18;;;;;;;3.33;2.23;;;4.50;69.00;;;;;;5022690;28;20132;-78
2021/12/28 05:19:44;;;;;;;5.27;2.30;;;4.50;69.00;;;;;;5022090;28;20076;-78
2021/12/28 05:22:12;;;;;;;3.40;1.97;;;4.60;69.00;;;;;;5023807;28;20022;-78
2021/12/28 05:24:38;;;;;;;5.40;3.03;;;4.50;69.60;;;;;;5024905;28;20685;-79
2021/12/28 05:27:04;;;;;;;5.93;3.80;;;4.50;68.90;;;;;;5024624;28;20064;-78
2021/12/28 05:29:30;;;;;;;6.37;3.80;;;4.50;68.90;;;;;;5039477;28;20531;-78
2021/12/28 05:31:56;;;;;;;6.33;3.73;;;4.40;69.10;;;;;;5026558;28;20025;-78
2021/12/28 05:34:22;;;;;;;6.73;4.10;;;4.40;69.40;;;;;;5032693;28;20536;-78
2021/12/28 05:36:48;;;;;;;6.57;3.10;;;4.40;69.50;;;;;;5032949;28;20025;-78
2021/12/28 05:39:13;;;;;;;7.53;4.60;;;4.40;69.50;;;;;;5018699;28;20022;-79
2021/12/28 05:41:39;;;;;;;6.70;4.27;;;4.40;69.50;;;;;;5025588;28;20532;-79
2021/12/28 05:44:05;;;;;;;7.67;5.07;;;4.40;69.80;;;;;;5029228;28;20025;-79
2021/12/28 05:46:31;;;;;;;10.90;5.80;;;4.40;69.30;;;;;;5014806;28;20048;-79
2021/12/28 05:48:56;;;;;;;8.73;5.90;;;4.30;69.40;;;;;;5024423;28;20025;-79
2021/12/28 05:51:22;;;;;;;9.30;5.53;;;4.30;69.60;;;;;;5026316;28;20377;-79
2021/12/28 05:53:48;;;;;;;10.77;5.53;;;4.30;69.50;;;;;;5028795;28;20035;-79
2021/12/28 05:56:14;;;;;;;12.17;6.30;;;4.40;69.60;;;;;;5031694;28;20129;-79
2021/12/28 05:58:40;;;;;;;11.23;6.23;;;4.30;69.40;;;;;;5020240;28;20106;-79
2021/12/28 06:01:06;;;;;;;12.27;6.53;;;4.30;70.30;;;;;;5025675;28;20395;-79
2021/12/28 06:03:32;;;;;;;13.70;6.47;;;4.30;69.60;;;;;;5019806;28;20022;-79
2021/12/28 06:05:58;;;;;;;11.57;6.73;;;4.40;69.80;;;;;;5012652;28;20354;-79
2021/12/28 06:08:24;;;;;;;10.17;6.60;;;4.40;69.60;;;;;;5029429;28;20033;-79
2021/12/28 06:10:49;;;;;;;12.73;7.53;;;4.40;69.60;;;;;;5032169;28;20032;-79
2021/12/28 06:13:15;;;;;;;11.47;7.27;;;4.40;69.60;;;;;;5019964;28;20042;-79
2021/12/28 06:15:41;;;;;;;15.83;7.87;;;4.40;69.60;;;;;;5020238;28;20487;-79
2021/12/28 06:18:07;;;;;;;11.13;7.23;;;4.40;69.50;;;;;;5019794;28;20025;-79
2021/12/28 06:20:33;;;;;;;11.47;8.00;;;4.50;69.70;;;;;;5022530;28;20057;-78
2021/12/28 06:22:58;;;;;;;14.20;7.23;;;4.50;69.40;;;;;;5021490;28;20396;-79
2021/12/28 06:25:24;;;;;;;15.37;9.43;;;4.50;69.50;;;;;;5025736;28;20042;-79
2021/12/28 06:27:50;;;;;;;17.83;10.17;;;4.50;69.60;;;;;;5026700;28;20053;-79
2021/12/28 06:30:16;;;;;;;16.67;11.23;;;4.50;69.60;;;;;;5030865;28;20032;-79
2021/12/28 06:32:41;;;;;;;18.67;12.03;;;4.50;69.60;;;;;;5021806;28;20026;-79
2021/12/28 06:35:08;;;;;;;20.77;12.67;;;4.50;69.70;;;;;;5023902;28;20040;-79
2021/12/28 06:37:34;;;;;;;14.53;9.83;;;4.50;69.70;;;;;;5031425;28;20034;-79
2021/12/28 06:40:00;;;;;;;19.70;13.27;;;4.50;69.50;;;;;;5023922;28;20033;-79
2021/12/28 06:42:26;;;;;;;20.47;14.30;;;4.50;69.70;;;;;;5028948;28;20029;-79
2021/12/28 06:44:52;;;;;;;13.50;9.30;;;4.50;70.00;;;;;;5031189;28;20032;-79
2021/12/28 06:47:19;;;;;;;14.90;8.90;;;4.50;70.10;;;;;;5023462;28;20482;-79
2021/12/28 06:49:45;;;;;;;15.13;8.63;;;4.60;70.00;;;;;;5034518;28;20100;-79
2021/12/28 06:52:13;;;;;;;15.63;9.50;;;4.70;70.10;;;;;;5032451;28;20055;-79
2021/12/28 06:54:39;;;;;;;17.77;12.07;;;4.60;69.80;;;;;;5033248;28;20017;-79
2021/12/28 06:57:10;;;;;;;25.40;15.00;;;4.70;69.80;;;;;;5019336;28;20030;-79
2021/12/28 06:59:40;;;;;;;20.87;14.67;;;4.70;69.80;;;;;;5030449;28;20488;-79
2021/12/28 07:02:06;;;;;;;19.17;12.37;;;4.60;69.70;;;;;;5027041;28;20026;-79
2021/12/28 07:04:33;;;;;;;33.00;17.97;;;4.70;69.90;;;;;;5020215;28;20026;-79
2021/12/28 07:06:58;;;;;;;88.60;43.33;;;4.70;70.40;;;;;;5025471;28;20030;-79
2021/12/28 07:09:24;;;;;;;44.33;24.57;;;4.70;70.00;;;;;;5024203;28;20033;-79
2021/12/28 07:11:50;;;;;;;45.97;26.47;;;4.70;70.00;;;;;;5029692;28;20059;-79
2021/12/28 07:14:16;;;;;;;22.40;11.30;;;4.80;69.90;;;;;;5026106;28;20025;-79
2021/12/28 07:16:41;;;;;;;21.33;12.13;;;4.80;70.00;;;;;;5031127;28;20029;-79
2021/12/28 07:19:10;;;;;;;24.30;16.37;;;4.80;69.90;;;;;;5031410;28;20021;-79
2021/12/28 07:21:40;;;;;;;24.83;14.20;;;4.80;69.90;;;;;;5024449;28;20022;-79
2021/12/28 07:24:07;;;;;;;22.90;15.80;;;4.80;69.80;;;;;;5028304;28;20014;-79
2021/12/28 07:26:34;;;;;;;21.03;13.57;;;4.80;69.80;;;;;;5031155;28;20049;-79
2021/12/28 07:28:59;;;;;;;14.03;8.83;;;4.80;69.80;;;;;;5029764;28;20018;-79
2021/12/28 07:31:25;;;;;;;23.50;12.60;;;4.90;70.40;;;;;;5032592;28;20018;-79
2021/12/28 07:33:51;;;;;;;22.13;14.37;;;4.90;69.80;;;;;;5032393;28;20151;-79
2021/12/28 07:36:18;;;;;;;17.30;9.53;;;4.90;69.90;;;;;;5027329;28;20063;-79
2021/12/28 07:38:43;;;;;;;20.20;10.63;;;4.90;69.90;;;;;;5029923;28;20030;-79
2021/12/28 07:41:09;;;;;;;13.97;8.33;;;4.90;70.10;;;;;;5030808;28;20025;-79
2021/12/28 07:43:35;;;;;;;35.43;16.90;;;5.00;70.30;;;;;;5017395;28;20116;-79
2021/12/28 07:46:01;;;;;;;49.07;21.87;;;5.00;70.40;;;;;;5030332;28;20069;-79
2021/12/28 07:48:27;;;;;;;35.90;16.43;;;5.00;70.60;;;;;;5024120;28;20091;-79
2021/12/28 07:50:52;;;;;;;32.00;14.97;;;5.10;70.50;;;;;;5029931;28;20044;-79
2021/12/28 07:53:18;;;;;;;25.70;12.83;;;5.20;70.10;;;;;;5027104;28;20059;-79
2021/12/28 07:55:44;;;;;;;13.13;7.57;;;5.20;70.00;;;;;;5026183;28;20052;-79
2021/12/28 07:58:10;;;;;;;14.83;9.23;;;5.40;70.40;;;;;;5026596;28;20040;-79
2021/12/28 08:00:35;;;;;;;15.57;7.67;;;5.50;69.70;;;;;;5022729;28;20022;-79
2021/12/28 08:03:04;;;;;;;10.90;5.57;;;5.40;69.70;;;;;;5028105;28;20048;-79
2021/12/28 08:05:31;;;;;;;6.73;4.17;;;5.40;69.60;;;;;;5026381;28;20029;-80
2021/12/28 08:07:56;;;;;;;5.50;4.00;;;5.50;69.90;;;;;;5023992;28;20068;-79
2021/12/28 08:10:22;;;;;;;7.37;4.60;;;5.60;70.20;;;;;;5028390;28;20029;-79
2021/12/28 08:12:51;;;;;;;6.80;4.20;;;5.90;70.20;;;;;;5024724;28;20044;-79
2021/12/28 08:15:17;;;;;;;7.80;4.53;;;6.00;69.30;;;;;;5027951;28;20479;-79
2021/12/28 08:17:43;;;;;;;7.37;4.43;;;6.00;69.10;;;;;;5019732;28;20452;-79
2021/12/28 08:20:11;;;;;;;6.20;3.70;;;5.90;69.30;;;;;;5026677;28;20385;-79
2021/12/28 08:22:38;;;;;;;6.73;4.33;;;5.90;69.50;;;;;;5027600;28;20037;-79
2021/12/28 08:25:06;;;;;;;5.97;3.63;;;5.90;69.10;;;;;;5026981;28;20022;-79
2021/12/28 08:27:31;;;;;;;7.40;3.90;;;5.90;69.10;;;;;;5028126;28;20366;-79
2021/12/28 08:29:57;;;;;;;10.17;5.17;;;5.80;69.00;;;;;;5024784;28;20048;-79
2021/12/28 08:32:23;;;;;;;10.20;6.03;;;5.80;69.20;;;;;;5027455;28;20057;-79
2021/12/28 08:34:49;;;;;;;11.00;5.37;;;5.80;69.30;;;;;;5022124;28;20032;-79
2021/12/28 08:37:15;;;;;;;11.10;6.30;;;5.80;69.30;;;;;;5029545;28;20029;-79
2021/12/28 08:39:41;;;;;;;9.80;6.27;;;5.90;69.40;;;;;;5019517;28;20087;-79
2021/12/28 08:42:07;;;;;;;9.27;6.60;;;5.90;69.40;;;;;;5025170;28;20033;-79
2021/12/28 08:44:33;;;;;;;19.47;6.67;;;5.80;69.30;;;;;;5024518;28;20036;-79
2021/12/28 08:46:59;;;;;;;12.27;6.70;;;5.80;69.30;;;;;;5026849;28;20034;-79
2021/12/28 08:49:26;;;;;;;12.83;7.80;;;5.80;69.40;;;;;;5019044;28;20029;-79
2021/12/28 08:51:52;;;;;;;10.13;6.70;;;5.80;69.40;;;;;;5017508;28;20026;-79
2021/12/28 08:54:18;;;;;;;30.43;16.70;;;5.90;69.50;;;;;;5028519;28;20017;-79
2021/12/28 08:56:45;;;;;;;16.20;10.13;;;5.90;69.50;;;;;;5023371;28;20358;-78
2021/12/28 08:59:11;;;;;;;15.53;9.00;;;5.90;69.50;;;;;;5027862;28;20022;-79
2021/12/28 09:01:37;;;;;;;44.33;23.93;;;5.80;69.50;;;;;;5025766;28;20037;-79
2021/12/28 09:04:03;;;;;;;16.43;9.60;;;5.80;69.50;;;;;;5027167;28;20022;-79
2021/12/28 09:06:29;;;;;;;11.70;5.40;;;5.90;69.90;;;;;;5029684;28;20021;-79
2021/12/28 09:08:55;;;;;;;10.27;4.70;;;5.90;69.70;;;;;;5027134;28;20385;-79
2021/12/28 09:11:21;;;;;;;9.57;5.30;;;6.10;70.00;;;;;;5020190;28;20033;-79
2021/12/28 09:13:46;;;;;;;7.43;4.13;;;6.20;69.60;;;;;;5020933;28;20045;-79
2021/12/28 09:16:12;;;;;;;7.30;4.80;;;6.50;69.50;;;;;;5030466;28;20408;-79
2021/12/28 09:18:39;;;;;;;8.93;5.20;;;6.50;68.60;;;;;;5031277;28;20108;-79
2021/12/28 09:21:04;;;;;;;11.23;7.60;;;6.50;68.50;;;;;;5030405;28;20498;-79
2021/12/28 09:23:30;;;;;;;6.03;3.83;;;6.60;68.30;;;;;;5025877;28;20061;-79
2021/12/28 09:25:56;;;;;;;8.17;4.10;;;6.60;68.30;;;;;;5023548;28;20322;-79
2021/12/28 09:28:23;;;;;;;7.17;5.17;;;6.70;68.20;;;;;;5027700;28;20088;-79
2021/12/28 09:30:48;;;;;;;7.53;3.70;;;6.80;67.90;;;;;;5024491;28;20064;-79
2021/12/28 09:33:14;;;;;;;6.50;3.90;;;6.80;67.80;;;;;;5016311;28;20030;-79
2021/12/28 09:35:40;;;;;;;7.53;4.37;;;6.80;67.90;;;;;;5016687;28;20484;-79
2021/12/28 09:38:06;;;;;;;6.90;4.93;;;6.80;67.90;;;;;;5023796;28;20484;-79
2021/12/28 09:40:34;;;;;;;7.07;4.60;;;6.90;68.00;;;;;;5025917;28;20140;-79
2021/12/28 09:43:02;;;;;;;11.83;4.90;;;7.00;67.90;;;;;;5025562;28;20032;-79
2021/12/28 09:45:28;;;;;;;6.77;4.10;;;7.00;67.40;;;;;;5035208;28;20061;-79
2021/12/28 09:47:54;;;;;;;6.93;4.63;;;7.10;67.30;;;;;;5018935;28;20065;-80
2021/12/28 09:50:21;;;;;;;5.77;3.57;;;7.50;66.90;;;;;;5025715;28;20080;-79
2021/12/28 09:52:49;;;;;;;7.27;4.03;;;7.40;66.00;;;;;;5015859;28;20026;-79
2021/12/28 09:55:21;;;;;;;5.57;4.00;;;7.30;66.40;;;;;;5028248;28;20025;-79
2021/12/28 09:57:47;;;;;;;8.85;4.75;;;7.20;66.60;;;;;;5024320;28;20033;-79
2021/12/28 10:00:14;;;;;;;9.77;4.50;;;7.20;66.80;;;;;;5030114;28;20480;-79
2021/12/28 10:02:40;;;;;;;32.73;9.67;;;7.10;66.70;;;;;;5026933;28;20029;-79
2021/12/28 10:05:16;;;;;;;11.23;5.63;;;7.10;66.80;;;;;;5024715;28;20739;-79
2021/12/28 10:07:50;;;;;;;15.23;7.03;;;7.00;66.80;;;;;;5022236;28;20117;-79
2021/12/28 10:10:16;;;;;;;13.33;7.40;;;6.90;67.00;;;;;;5028222;28;20028;-80
2021/12/28 10:12:48;;;;;;;27.30;12.73;;;6.90;67.20;;;;;;5023133;28;20070;-79
2021/12/28 10:15:20;;;;;;;11.65;6.85;;;6.80;67.10;;;;;;5028020;28;20026;-79
2021/12/28 10:17:49;;;;;;;11.77;7.10;;;6.70;67.40;;;;;;5026706;28;20060;-79
2021/12/28 10:20:55;;;;;;;9.63;5.27;;;6.90;67.80;;;;;;5024094;28;20034;-79
2021/12/28 10:23:25;;;;;;;21.17;12.07;;;7.00;67.30;;;;;;5031693;28;20439;-79
2021/12/28 10:25:57;;;;;;;14.70;8.83;;;7.10;67.40;;;;;;5022314;28;20048;-79
2021/12/28 10:28:34;;;;;;;13.23;7.90;;;7.10;67.30;;;;;;5023001;28;20038;-79
2021/12/28 10:31:09;;;;;;;17.27;9.40;;;7.10;67.20;;;;;;5019050;28;20030;-79
2021/12/28 10:33:37;;;;;;;16.37;9.70;;;7.20;67.30;;;;;;5028531;28;20120;-79
2021/12/28 10:36:07;;;;;;;9.43;5.27;;;7.20;67.30;;;;;;5023031;28;20033;-79
2021/12/28 10:38:36;;;;;;;13.47;6.47;;;7.30;67.10;;;;;;5021201;28;20048;-80
2021/12/28 10:41:13;;;;;;;9.93;5.33;;;7.30;66.90;;;;;;5025438;28;20032;-79
2021/12/28 10:43:45;;;;;;;8.10;5.50;;;7.40;66.60;;;;;;5031753;28;20034;-80
2021/12/28 10:46:22;;;;;;;;;;;7.40;66.50;;;;;;5018100;28;20038;-79
2021/12/28 10:48:58;;;;;;;11.30;5.43;;;7.40;66.50;;;;;;5015465;28;19928;-79
2021/12/28 10:51:28;;;;;;;8.70;5.93;;;7.40;66.20;;;;;;5020246;28;20037;-80
2021/12/28 10:56:31;;;;;;;7.47;4.50;;;7.40;66.30;;;;;;5022852;28;20049;-79
2021/12/28 10:58:57;;;;;;;11.80;4.63;;;7.50;66.80;;;;;;5029466;28;20654;-79
2021/12/28 11:01:26;;;;;;;8.30;5.00;;;7.60;66.20;;;;;;5025626;28;20033;-79
2021/12/28 11:04:03;;;;;;;9.87;5.47;;;7.70;65.60;;;;;;5025171;28;20075;-79
2021/12/28 11:06:32;;;;;;;6.63;3.97;;;7.90;65.30;;;;;;5023263;28;20041;-80
2021/12/28 11:09:04;;;;;;;8.07;3.80;;;8.00;65.40;;;;;;5024415;28;20030;-80
2021/12/28 11:11:30;;;;;;;8.60;4.47;;;8.30;64.70;;;;;;5028018;28;20541;-79
2021/12/28 11:13:59;;;;;;;8.07;4.60;;;8.40;64.40;;;;;;5018976;28;20036;-80
2021/12/28 11:16:26;;;;;;;8.27;4.97;;;8.60;64.40;;;;;;5018118;28;20095;-79
2021/12/28 11:18:54;;;;;;;9.07;5.13;;;8.60;64.30;;;;;;5025122;28;20588;-80
2021/12/28 11:21:27;;;;;;;9.40;5.53;;;8.90;64.50;;;;;;5015619;28;20056;-80
2021/12/28 11:24:15;;;;;;;6.80;5.13;;;9.20;63.70;;;;;;5013266;28;20041;-80
2021/12/28 11:26:45;;;;;;;7.77;4.77;;;9.40;63.40;;;;;;5014748;28;20037;-80
2021/12/28 11:29:22;;;;;;;11.43;7.30;;;9.80;62.90;;;;;;5024844;28;20032;-80
2021/12/28 11:31:57;;;;;;;11.43;7.43;;;10.00;62.20;;;;;;5022163;28;20041;-80
2021/12/28 11:34:30;;;;;;;10.77;6.10;;;9.70;62.00;;;;;;5030899;28;20103;-80
2021/12/28 11:36:55;;;;;;;;;;;9.50;62.30;;;;;;5032543;28;20025;-80
2021/12/28 11:39:28;;;;;;;14.87;7.87;;;9.30;62.70;;;;;;5015012;28;20319;-80
2021/12/28 11:41:55;;;;;;;11.32;7.45;;;9.20;62.70;;;;;;5017420;28;20044;-80
2021/12/28 11:44:23;;;;;;;14.63;8.53;;;9.10;62.80;;;;;;5017883;28;20034;-80
2021/12/28 11:46:51;;;;;;;14.40;9.50;;;9.10;62.90;;;;;;5011906;28;20041;-80
2021/12/28 11:49:17;;;;;;;11.67;3.17;;;9.10;63.00;;;;;;5020019;28;20033;-80
2021/12/28 11:51:45;;;;;;;6.50;3.97;;;9.00;62.50;;;;;;5025542;28;20116;-79
2021/12/28 11:54:14;;;;;;;12.53;5.60;;;9.20;62.10;;;;;;5015429;28;20017;-79
2021/12/28 11:56:43;;;;;;;12.93;6.80;;;9.30;61.80;;;;;;5026394;28;20449;-79
2021/12/28 11:59:24;;;;;;;42.23;17.10;;;9.40;61.60;;;;;;5021259;28;20022;-80
2021/12/28 12:01:54;;;;;;;16.97;9.03;;;9.40;61.60;;;;;;5015525;28;20537;-79
2021/12/28 12:04:32;;;;;;;15.47;7.30;;;9.60;61.40;;;;;;5015078;28;20033;-80
2021/12/28 12:07:01;;;;;;;12.67;6.27;;;9.60;61.10;;;;;;5020997;28;20041;-79
2021/12/28 12:09:28;;;;;;;16.23;11.33;;;9.60;61.50;;;;;;5020125;28;20034;-80
2021/12/28 12:12:15;;;;;;;12.20;8.23;;;9.60;61.30;;;;;;5025759;28;20049;-80
2021/12/28 12:14:50;;;;;;;14.30;6.70;;;9.50;61.30;;;;;;5020387;28;20025;-80
2021/12/28 12:17:31;;;;;;;8.50;4.97;;;9.40;61.60;;;;;;5018679;28;20034;-80
2021/12/28 12:20:09;;;;;;;5.67;4.23;;;9.40;61.50;;;;;;5020324;28;20488;-81
2021/12/28 12:22:36;;;;;;;3.73;2.33;;;9.50;61.50;;;;;;5024068;28;20030;-81
2021/12/28 12:25:12;;;;;;;4.70;2.40;;;9.70;60.80;;;;;;5004669;28;20041;-80
2021/12/28 12:27:50;;;;;;;8.53;2.93;;;9.80;60.50;;;;;;5024536;28;20033;-81
2021/12/28 12:30:25;;;;;;;6.67;2.40;;;10.10;60.10;;;;;;5030489;28;20034;-80
2021/12/28 12:33:05;;;;;;;4.03;2.60;;;10.10;59.40;;;;;;5023319;28;20117;-81
2021/12/28 12:35:33;;;;;;;4.20;2.70;;;10.10;59.20;;;;;;5020165;28;20038;-81
2021/12/28 12:38:01;;;;;;;6.17;2.90;;;10.40;59.30;;;;;;5017506;28;20026;-80
2021/12/28 12:40:55;;;;;;;6.47;3.47;;;10.60;58.90;;;;;;5019495;28;20034;-80
2021/12/28 12:43:23;;;;;;;4.17;2.30;;;10.80;58.30;;;;;;5022836;28;20025;-79
2021/12/28 12:45:55;;;;;;;4.40;2.20;;;11.00;57.70;;;;;;5026883;28;20115;-80
2021/12/28 12:48:36;;;;;;;4.35;2.60;;;11.10;57.40;;;;;;5016738;28;20484;-80
2021/12/28 12:51:22;;;;;;;5.50;2.83;;;11.20;56.60;;;;;;5023612;28;20104;-80
2021/12/28 12:53:59;;;;;;;4.37;2.60;;;11.20;56.40;;;;;;5025808;28;20053;-78
2021/12/28 12:56:29;;;;;;;4.97;2.23;;;11.30;56.40;;;;;;5022090;28;20749;-80
2021/12/28 12:59:01;;;;;;;5.50;3.00;;;11.40;56.10;;;;;;5019841;28;20037;-80